Latest Weather Observations for Perth Airport

IDW60801

Issued at 3:33 am WST Friday 19 January 2018 (issued every 30 minutes, with the page automatically refreshed every 10 minutes)

About weather observations | Map of weather stations | Latest weather observations for WA | Other Formats
Station Details ID: 009021 Name: PERTH AIRPORT Lat: -31.93 Lon: 115.98 Height: 15.4 m
Data from the previous 72 hours. | See also: Recent months at Perth Airport
Date/Time
WST
Temp
°C
App
Temp
°C
Dew
Point
°C
Rel
Hum
%
Delta-T
°C
Wind Press
QNH
hPa
Press
MSL
hPa
Rain since
9am
mm
Dir  Spd
km/h
Gust
km/h
Spd
kts
Gust
kts
19/03:30am 17.1 12.5 9.7 61 3.9 ESE 24 33 13 18 1015.8 1015.7 0.0
19/03:00am 17.4 11.8 10.0 62 3.9 ESE 30 50 16 27 1015.8 1015.7 0.0
19/02:56am 17.4 12.2 10.2 62 3.8 ESE 28 46 15 25 1015.8 1015.7 0.0
19/02:30am 17.9 14.3 10.6 62 3.9 ESE 20 41 11 22 1015.5 1015.4 0.0
19/02:00am 18.5 15.5 10.5 59 4.3 E 17 28 9 15 1015.4 1015.3 0.0
19/01:30am 19.0 17.3 11.3 61 4.2 ESE 11 19 6 10 1015.1 1015.0 0.0
19/01:00am 19.8 17.1 11.7 59 4.5 ESE 17 33 9 18 1015.1 1015.0 0.0
19/12:30am 20.6 18.7 11.8 57 4.9 ESE 13 19 7 10 1015.0 1014.9 0.0
19/12:00am 21.1 18.6 12.4 57 4.9 ESE 17 20 9 11 1014.8 1014.7 0.0
 
Date/Time
WST
Temp
°C
App
Temp
°C
Dew
Point
°C
Rel
Hum
%
Delta-T
°C
Wind Press
QNH
hPa
Press
MSL
hPa
Rain since
9am
mm
Dir  Spd
km/h
Gust
km/h
Spd
kts
Gust
kts
18/11:30pm 21.8 19.7 12.4 55 5.3 ESE 15 26 8 14 1014.7 1014.6 0.0
18/11:00pm 22.4 20.1 11.7 50 6.0 SE 15 24 8 13 1014.6 1014.5 0.0
18/10:30pm 22.7 20.8 11.9 50 6.1 SSE 13 26 7 14 1014.6 1014.5 0.0
18/10:00pm 22.8 20.2 12.0 50 6.1 SSE 17 24 9 13 1014.5 1014.4 0.0
18/09:30pm 23.1 21.8 12.6 51 6.0 S 11 15 6 8 1014.3 1014.2 0.0
18/09:00pm 23.2 21.9 13.6 54 5.6 SSE 13 17 7 9 1013.9 1013.8 0.0
18/08:30pm 23.4 21.7 14.6 57 5.2 SSE 17 19 9 10 1013.6 1013.5 0.0
18/08:00pm 24.5 22.5 14.0 52 6.2 SSE 17 20 9 11 1013.2 1013.1 0.0
18/07:30pm 25.6 23.3 12.9 45 7.4 SSE 17 20 9 11 1012.8 1012.7 0.0
18/07:00pm 26.7 24.0 13.0 42 8.0 SSE 19 26 10 14 1012.4 1012.3 0.0
18/06:30pm 27.4 24.1 12.9 40 8.5 SSE 22 30 12 16 1012.1 1012.0 0.0
18/06:00pm 28.0 25.5 12.4 38 9.1 SSE 17 24 9 13 1011.9 1011.8 0.0
18/05:30pm 28.0 26.3 12.6 38 9.0 SSE 13 17 7 9 1011.8 1011.7 0.0
18/05:00pm 29.0 27.8 12.7 36 9.6 ESE 11 19 6 10 1011.7 1011.6 0.0
18/04:30pm 28.1 25.9 12.1 37 9.3 SE 15 20 8 11 1011.8 1011.7 0.0
18/04:00pm 28.1 26.7 12.3 37 9.2 SSE 11 15 6 8 1011.9 1011.8 0.0
18/03:30pm 28.5 26.9 12.9 38 9.2 SE 13 19 7 10 1012.0 1011.9 0.0
18/03:00pm 28.3 27.2 13.0 39 9.0 ESE 11 19 6 10 1012.2 1012.1 0.0
18/02:30pm 27.8 26.3 13.0 40 8.7 SSE 13 22 7 12 1012.3 1012.2 0.0
18/02:00pm 26.6 25.7 13.8 45 7.6 ESE 11 17 6 9 1012.5 1012.4 0.0
18/01:30pm 26.2 25.4 13.9 46 7.3 E 11 24 6 13 1012.7 1012.6 0.0
18/01:00pm 25.1 23.9 13.9 49 6.6 ESE 13 22 7 12 1012.7 1012.6 0.0
18/12:30pm 24.8 22.1 13.5 49 6.6 ESE 20 30 11 16 1012.9 1012.8 0.0
18/12:00pm 25.3 23.0 14.2 50 6.6 ESE 19 28 10 15 1013.0 1012.9 0.0
18/11:30am 24.1 22.4 14.7 55 5.6 SE 17 30 9 16 1013.2 1013.1 0.0
18/11:00am 22.1 20.0 14.6 62 4.4 SE 19 26 10 14 1013.3 1013.2 0.0
18/10:30am 21.8 19.1 14.5 63 4.3 SE 22 30 12 16 1013.4 1013.3 0.0
18/10:00am 21.7 19.2 15.1 66 3.9 SSE 22 28 12 15 1013.1 1013.0 0.0
18/09:30am 21.3 18.8 15.2 68 3.6 SSE 22 28 12 15 1013.2 1013.1 0.0
18/09:00am 20.8 17.3 15.4 71 3.2 SSE 28 35 15 19 1013.0 1012.9 0.6
18/08:30am 20.6 17.9 15.7 73 2.9 S 24 32 13 17 1012.7 1012.6 0.6
18/08:00am 20.1 17.7 16.4 79 2.2 SSW 24 32 13 17 1012.6 1012.5 0.6
18/07:30am 19.4 17.0 16.4 83 1.8 SSW 24 32 13 17 1012.6 1012.5 0.6
18/07:00am 18.9 16.7 16.0 83 1.7 SSW 22 28 12 15 1012.6 1012.5 0.6
18/06:30am 19.0 17.3 16.3 84 1.6 SSW 20 30 11 16 1012.1 1012.0 0.6
18/06:00am 18.8 17.8 16.5 86 1.4 S 17 22 9 12 1011.8 1011.7 0.6
18/05:30am 18.8 17.4 16.5 86 1.4 SSW 19 26 10 14 1011.4 1011.3 0.6
18/05:00am 19.1 17.1 16.4 84 1.6 SSW 22 28 12 15 1010.8 1010.7 0.6
18/04:30am 19.4 17.5 16.6 84 1.7 SSW 22 30 12 16 1010.4 1010.3 0.6
18/04:00am 19.3 17.1 16.8 85 1.5 SSW 24 32 13 17 1010.2 1010.1 0.6
18/03:30am 19.5 18.2 16.9 85 1.6 SSW 19 26 10 14 1009.8 1009.7 0.6
18/03:00am 19.4 17.7 17.3 88 1.3 SSW 22 30 12 16 1009.5 1009.4 0.6
18/02:30am 19.2 18.7 17.7 91 0.9 SSW 17 22 9 12 1009.3 1009.2 0.6
18/02:00am 19.1 18.7 18.0 93 0.7 SSW 17 26 9 14 1009.1 1009.0 0.6
18/01:30am 19.2 17.2 18.2 94 0.6 SSW 26 35 14 19 1009.0 1008.9 0.6
18/01:00am 19.7 18.5 18.4 92 0.8 SSW 22 30 12 16 1009.1 1009.0 0.6
18/12:30am 20.3 18.2 18.0 87 1.4 SSW 26 35 14 19 1008.9 1008.8 0.6
18/12:00am 20.7 19.1 18.3 86 1.5 SSW 24 33 13 18 1008.9 1008.8 0.6
 
Date/Time
WST
Temp
°C
App
Temp
°C
Dew
Point
°C
Rel
Hum
%
Delta-T
°C
Wind Press
QNH
hPa
Press
MSL
hPa
Rain since
9am
mm
Dir  Spd
km/h
Gust
km/h
Spd
kts
Gust
kts
17/11:30pm 20.8 20.1 18.6 87 1.4 SW 20 30 11 16 1009.0 1008.9 0.6
17/11:00pm 20.9 19.2 19.0 89 1.2 SW 26 35 14 19 1008.7 1008.6 0.6
17/10:30pm 21.2 20.3 19.1 88 1.3 SSW 22 28 12 15 1009.0 1008.9 0.6
17/10:00pm 21.7 20.4 19.0 84 1.7 SSW 24 32 13 17 1008.9 1008.8 0.6
17/09:30pm 22.2 21.1 18.7 80 2.2 SW 22 32 12 17 1008.6 1008.5 0.6
17/09:00pm 22.3 21.5 19.3 83 1.9 SW 22 28 12 15 1008.3 1008.2 0.6
17/08:30pm 22.3 22.1 19.3 83 1.9 SW 19 28 10 15 1007.8 1007.7 0.6
17/08:00pm 22.3 21.9 19.3 83 1.9 WSW 20 28 11 15 1007.4 1007.3 0.6
17/07:30pm 22.5 21.4 19.4 82 2.0 SW 24 35 13 19 1007.0 1006.9 0.6
17/07:00pm 22.6 21.0 19.3 81 2.1 SW 26 33 14 18 1006.7 1006.6 0.6
17/06:30pm 23.2 21.3 19.3 79 2.5 SW 28 33 15 18 1006.3 1006.2 0.6
17/06:00pm 23.4 22.2 19.3 78 2.6 WSW 24 32 13 17 1006.0 1005.9 0.6
17/05:52pm 23.8 22.8 19.6 77 2.7 WSW 24 32 13 17 1005.8 1005.7 0.6
17/05:30pm 24.1 22.6 19.4 75 3.0 SW 26 33 14 18 1005.5 1005.4 0.6
17/05:00pm 24.6 23.9 19.6 73 3.2 WSW 22 30 12 16 1005.4 1005.3 0.6
17/04:30pm 25.0 24.9 19.9 73 3.3 WSW 20 30 11 16 1005.2 1005.1 0.6
17/04:00pm 24.8 24.2 20.4 76 2.9 SW 24 32 13 17 1005.0 1004.9 0.6
17/03:30pm 25.2 24.6 20.5 75 3.1 SW 24 35 13 19 1005.0 1004.9 0.6
17/03:14pm 26.2 25.5 21.1 73 3.4 SW 26 32 14 17 1004.9 1004.8 0.6
17/03:00pm 26.9 26.5 21.7 73 3.5 W 26 32 14 17 1004.9 1004.8 0.6
17/02:30pm 26.6 27.2 22.1 76 3.0 W 22 28 12 15 1005.1 1005.0 0.4
17/02:00pm 26.1 27.2 21.9 77 2.8 WSW 19 24 10 13 1004.8 1004.7 0.4
17/01:53pm 25.9 27.3 21.9 78 2.7 W 17 24 9 13 1004.8 1004.7 0.4
17/01:30pm 25.6 28.8 22.3 82 2.2 NNW 9 13 5 7 1004.8 1004.7 0.4
17/01:12pm 24.7 28.2 22.9 90 1.2 WNW 9 13 5 7 1004.9 1004.8 0.4
17/01:00pm 24.0 27.1 22.8 93 0.8 W 11 13 6 7 1004.9 1004.8 0.4
17/12:44pm 23.7 26.4 22.2 91 1.0 W 11 15 6 8 1004.9 1004.8 0.4
17/12:30pm 24.8 28.4 22.4 86 1.6 NNW 7 11 4 6 1004.8 1004.7 0.0
17/12:05pm 24.4 27.1 22.2 87 1.5 NNW 11 15 6 8 1005.0 1004.9 0.0
17/12:00pm 24.7 27.8 22.2 86 1.7 NW 9 13 5 7 1005.0 1004.9 0.0
17/11:48am 24.5 27.0 22.4 88 1.4 NW 13 17 7 9 1005.1 1005.0 0.0
17/11:30am 24.2 26.7 21.8 86 1.6 WNW 11 15 6 8 1005.1 1005.0 0.0
17/11:29am 24.3 26.9 21.9 86 1.6 WNW 11 15 6 8 1005.1 1005.0 0.0
17/11:00am 24.9 26.3 21.1 79 2.5 WNW 15 20 8 11 1005.2 1005.1 0.0
17/10:51am 24.9 26.8 21.3 80 2.4 NW 13 17 7 9 1005.2 1005.1 0.0
17/10:30am 24.0 26.6 21.9 88 1.4 W 11 17 6 9 1005.1 1005.0 0.0
17/10:00am 24.9 26.2 20.8 78 2.7 WSW 15 20 8 11 1005.1 1005.0 0.0
17/09:30am 25.0 27.0 20.7 77 2.8 NNW 11 15 6 8 1005.1 1005.0 0.0
17/09:00am 24.6 26.1 21.3 82 2.2 NW 15 20 8 11 1005.1 1005.0 0.2
17/08:30am 24.1 26.3 21.2 84 1.9 W 11 13 6 7 1005.0 1004.9 0.2
17/08:00am 24.0 25.8 21.1 84 1.9 NNW 13 15 7 8 1005.0 1004.9 0.2
17/07:30am 23.2 25.4 21.2 88 1.3 N 11 15 6 8 1005.0 1004.9 0.2
17/07:19am 23.1 25.0 21.3 90 1.2 NNE 13 17 7 9 1005.0 1004.9 0.2
17/07:00am 23.0 24.8 21.2 89 1.2 NNE 13 17 7 9 1005.0 1004.9 0.2
17/06:54am 23.1 24.8 21.0 88 1.4 NNE 13 17 7 9 1004.9 1004.8 0.2
17/06:30am 23.2 25.2 20.8 86 1.6 NNE 11 17 6 9 1004.7 1004.6 0.2
17/06:00am 22.9 24.8 20.6 87 1.5 NNE 11 13 6 7 1004.5 1004.4 0.2
17/05:30am 22.8 25.1 20.7 88 1.4 NNE 9 11 5 6 1004.4 1004.3 0.2
17/05:00am 22.7 25.4 20.6 88 1.4 NNE 7 9 4 5 1004.1 1004.0 0.2
17/04:30am 22.4 24.8 20.9 91 1.0 ENE 9 9 5 5 1004.0 1003.9 0.2
17/04:00am 22.3 26.5 20.9 92 0.9 CALM 0 4 0 2 1004.2 1004.1 0.2
17/03:30am 22.3 25.3 20.8 91 1.0 E 6 7 3 4 1004.2 1004.1 0.2
17/03:00am 22.5 26.0 21.1 92 0.9 NNE 4 7 2 4 1004.4 1004.3 0.2
17/02:30am 22.6 25.0 20.8 89 1.2 NE 9 15 5 8 1004.5 1004.4 0.2
17/02:00am 22.8 25.7 21.1 90 1.1 NE 7 7 4 4 1004.7 1004.6 0.2
17/01:30am 22.7 25.1 20.9 89 1.2 NE 9 15 5 8 1004.8 1004.7 0.2
17/01:00am 22.5 25.3 20.8 90 1.1 NNE 7 9 4 5 1004.9 1004.8 0.2
17/12:30am 22.4 24.8 20.9 91 1.0 N 9 11 5 6 1004.9 1004.8 0.2
17/12:00am 22.0 24.4 20.8 93 0.8 NNE 9 11 5 6 1005.0 1004.9 0.2
 
Date/Time
WST
Temp
°C
App
Temp
°C
Dew
Point
°C
Rel
Hum
%
Delta-T
°C
Wind Press
QNH
hPa
Press
MSL
hPa
Rain since
9am
mm
Dir  Spd
km/h
Gust
km/h
Spd
kts
Gust
kts
16/11:30pm 21.5 23.7 20.4 93 0.7 NE 9 11 5 6 1005.2 1005.1 0.2
16/11:00pm 21.6 25.5 20.4 93 0.8 CALM 0 6 0 3 1005.2 1005.1 0.2
16/10:30pm 21.9 24.5 20.4 91 1.0 NNW 7 9 4 5 1005.4 1005.3 0.2
16/10:00pm 22.4 24.7 20.6 89 1.2 NW 9 11 5 6 1005.5 1005.4 0.2
16/09:30pm 22.9 24.8 20.6 87 1.5 NNW 11 19 6 10 1005.6 1005.5 0.2
16/09:00pm 23.5 24.9 20.4 83 2.0 NNW 13 15 7 8 1005.6 1005.5 0.2
16/08:30pm 23.8 25.2 20.3 81 2.3 NNW 13 17 7 9 1005.7 1005.6 0.2
16/08:00pm 24.2 25.7 20.5 80 2.4 NNW 13 15 7 8 1005.6 1005.5 0.2
16/07:30pm 24.9 26.7 20.3 75 3.0 NW 11 15 6 8 1005.4 1005.3 0.2
16/07:00pm 26.3 27.6 20.2 69 4.0 WNW 13 17 7 9 1004.8 1004.7 0.2
16/06:30pm 26.5 27.7 19.9 67 4.3 WNW 13 20 7 11 1004.6 1004.5 0.0
16/06:00pm 27.0 27.8 19.8 64 4.7 WNW 15 19 8 10 1004.5 1004.4 0.2
16/05:30pm 27.5 27.4 19.9 63 5.0 WNW 20 30 11 16 1004.2 1004.1 0.2
16/05:00pm 27.3 27.1 19.8 63 4.9 W 20 30 11 16 1004.1 1004.0 0.2
16/04:30pm 27.4 27.5 19.9 63 4.9 W 19 28 10 15 1004.0 1003.9 0.2
16/04:00pm 27.2 27.1 19.9 64 4.8 WNW 20 32 11 17 1004.0 1003.9 0.2
16/03:30pm 27.9 27.2 20.3 63 5.0 WNW 24 33 13 18 1004.2 1004.1 0.2
16/03:00pm 27.9 28.1 20.6 64 4.8 WNW 20 30 11 16 1004.3 1004.2 0.2
16/02:30pm 28.5 29.1 21.3 65 4.8 WNW 20 28 11 15 1004.3 1004.2 0.2
16/02:00pm 28.7 29.9 21.4 64 4.9 WNW 17 28 9 15 1004.6 1004.5 0.2
16/01:30pm 28.1 28.9 21.4 67 4.5 WSW 19 28 10 15 1004.7 1004.6 0.2
16/01:00pm 27.9 28.5 21.3 67 4.4 W 20 32 11 17 1004.9 1004.8 0.2
16/12:30pm 27.5 26.5 20.5 65 4.6 W 26 35 14 19 1004.7 1004.6 0.2
16/12:00pm 29.6 28.7 20.6 58 6.0 WNW 26 35 14 19 1004.5 1004.4 0.2
16/11:30am 31.9 31.2 20.3 50 7.7 NE 24 32 13 17 1004.5 1004.4 0.2
16/11:00am 30.8 30.5 19.5 51 7.4 NE 20 33 11 18 1005.0 1004.9 0.2
16/10:30am 29.8 28.3 19.4 53 6.8 NNE 26 37 14 20 1005.5 1005.4 0.2
16/10:00am 28.6 27.9 19.4 57 6.0 NE 22 30 12 16 1005.7 1005.6 0.2
16/09:30am 27.5 26.0 18.6 58 5.7 NE 24 32 13 17 1005.9 1005.8 0.0
16/09:00am 26.8 25.1 18.9 62 5.1 ENE 26 35 14 19 1005.9 1005.8 82.6
16/08:30am 23.5 21.9 17.4 68 3.8 ENE 22 30 12 16 1006.0 1005.9 82.6
16/08:00am 22.0 19.9 17.1 74 3.0 ENE 24 32 13 17 1006.3 1006.2 82.6
16/07:30am 21.0 19.6 17.1 78 2.4 ENE 20 33 11 18 1006.3 1006.2 82.6
16/07:00am 20.1 17.5 16.8 81 2.0 ENE 26 37 14 20 1006.5 1006.4 82.6
16/06:30am 19.7 15.9 16.6 82 1.9 ENE 32 43 17 23 1006.3 1006.2 82.6
16/06:00am 19.3 15.8 16.5 84 1.7 ENE 30 39 16 21 1006.3 1006.2 82.4
16/05:31am 18.8 14.4 16.6 87 1.3 ENE 35 54 19 29 1006.1 1006.0 82.4
16/05:30am 18.9 14.5 16.6 86 1.4 E 35 46 19 25 1006.1 1006.0 82.4
16/05:00am 18.6 13.9 16.8 89 1.1 E 37 54 20 29 1005.8 1005.7 82.4
16/04:30am 18.6 12.8 16.9 90 1.0 E 43 57 23 31 1006.2 1006.1 81.4
16/04:20am 18.9 13.1 16.9 88 1.2 E 43 57 23 31 1006.3 1006.2 79.2
16/04:18am 19.1 13.6 16.8 86 1.4 E 41 57 22 31 1006.5 1006.4 77.6
16/04:08am 19.9 15.3 16.2 79 2.2 ENE 35 56 19 30 1006.9 1006.8 77.2
16/04:00am 19.5 14.3 16.5 83 1.8 E 39 54 21 29 1006.2 1006.1 77.2

Other Formats:

Comma delimited format used in spreadsheet applications
http://www.bom.gov.au/fwo/IDW60801/IDW60801.94610.axf

JavaScript Object Notation format (JSON) in row-major order
http://www.bom.gov.au/fwo/IDW60801/IDW60801.94610.json